sensor_id;sensor_type;location;lat;lon;timestamp;temperature;humidity
44117;DHT22;29781;49.480;8.512;2023-04-25T00:01:38;10.60;99.90
44117;DHT22;29781;49.480;8.512;2023-04-25T00:04:04;10.80;99.90
44117;DHT22;29781;49.480;8.512;2023-04-25T00:06:31;10.80;99.90
44117;DHT22;29781;49.480;8.512;2023-04-25T00:08:57;11.00;99.90
44117;DHT22;29781;49.480;8.512;2023-04-25T00:11:23;10.90;99.90
44117;DHT22;29781;49.480;8.512;2023-04-25T00:13:49;10.90;99.90
44117;DHT22;29781;49.480;8.512;2023-04-25T00:16:16;10.80;99.90
44117;DHT22;29781;49.480;8.512;2023-04-25T00:18:42;10.90;99.90
44117;DHT22;29781;49.480;8.512;2023-04-25T00:21:08;11.10;99.90
44117;DHT22;29781;49.480;8.512;2023-04-25T00:23:33;11.10;99.90
44117;DHT22;29781;49.480;8.512;2023-04-25T00:26:02;11.20;99.90
44117;DHT22;29781;49.480;8.512;2023-04-25T00:28:27;10.90;99.90
44117;DHT22;29781;49.480;8.512;2023-04-25T00:30:53;10.80;99.90
44117;DHT22;29781;49.480;8.512;2023-04-25T00:33:18;10.80;99.90
44117;DHT22;29781;49.480;8.512;2023-04-25T00:35:44;10.40;99.90
44117;DHT22;29781;49.480;8.512;2023-04-25T00:38:09;10.20;99.90
44117;DHT22;29781;49.480;8.512;2023-04-25T00:40:35;10.10;99.90
44117;DHT22;29781;49.480;8.512;2023-04-25T00:43:00;10.00;99.90
44117;DHT22;29781;49.480;8.512;2023-04-25T00:45:29;9.90;99.90
44117;DHT22;29781;49.480;8.512;2023-04-25T00:47:55;10.20;99.90
44117;DHT22;29781;49.480;8.512;2023-04-25T00:50:22;10.40;99.90
44117;DHT22;29781;49.480;8.512;2023-04-25T00:52:47;10.70;99.90
44117;DHT22;29781;49.480;8.512;2023-04-25T00:55:13;10.60;99.90
44117;DHT22;29781;49.480;8.512;2023-04-25T00:57:39;10.40;99.90
44117;DHT22;29781;49.480;8.512;2023-04-25T01:00:07;10.20;99.90
44117;DHT22;29781;49.480;8.512;2023-04-25T01:02:35;10.00;99.90
44117;DHT22;29781;49.480;8.512;2023-04-25T01:05:02;10.00;99.90
44117;DHT22;29781;49.480;8.512;2023-04-25T01:07:28;10.00;99.90
44117;DHT22;29781;49.480;8.512;2023-04-25T01:09:54;10.10;99.90
44117;DHT22;29781;49.480;8.512;2023-04-25T01:12:20;10.30;99.90
44117;DHT22;29781;49.480;8.512;2023-04-25T01:14:46;10.50;99.90
44117;DHT22;29781;49.480;8.512;2023-04-25T01:17:12;10.60;99.90
44117;DHT22;29781;49.480;8.512;2023-04-25T01:19:38;10.60;99.90
44117;DHT22;29781;49.480;8.512;2023-04-25T01:22:03;10.50;99.90
44117;DHT22;29781;49.480;8.512;2023-04-25T01:24:31;10.60;99.90
44117;DHT22;29781;49.480;8.512;2023-04-25T01:26:58;10.50;99.90
44117;DHT22;29781;49.480;8.512;2023-04-25T01:29:26;10.60;99.90
44117;DHT22;29781;49.480;8.512;2023-04-25T01:31:52;10.50;99.90
44117;DHT22;29781;49.480;8.512;2023-04-25T01:34:18;10.60;99.90
44117;DHT22;29781;49.480;8.512;2023-04-25T01:36:44;10.70;99.90
44117;DHT22;29781;49.480;8.512;2023-04-25T01:39:09;10.90;99.90
44117;DHT22;29781;49.480;8.512;2023-04-25T01:41:35;10.90;99.90
44117;DHT22;29781;49.480;8.512;2023-04-25T01:44:01;11.00;99.90
44117;DHT22;29781;49.480;8.512;2023-04-25T01:46:27;11.00;99.90
44117;DHT22;29781;49.480;8.512;2023-04-25T01:48:53;11.00;99.90
44117;DHT22;29781;49.480;8.512;2023-04-25T01:51:18;10.80;99.90
44117;DHT22;29781;49.480;8.512;2023-04-25T01:53:44;10.60;99.90
44117;DHT22;29781;49.480;8.512;2023-04-25T01:56:10;10.60;99.90
44117;DHT22;29781;49.480;8.512;2023-04-25T01:58:35;10.40;99.90
44117;DHT22;29781;49.480;8.512;2023-04-25T02:01:01;10.00;99.90
44117;DHT22;29781;49.480;8.512;2023-04-25T02:03:27;9.90;99.90
44117;DHT22;29781;49.480;8.512;2023-04-25T02:05:53;10.00;99.90
44117;DHT22;29781;49.480;8.512;2023-04-25T02:08:18;10.20;99.90
44117;DHT22;29781;49.480;8.512;2023-04-25T02:10:44;10.30;99.90
44117;DHT22;29781;49.480;8.512;2023-04-25T02:13:10;10.30;99.90
44117;DHT22;29781;49.480;8.512;2023-04-25T02:15:35;10.30;99.90
44117;DHT22;29781;49.480;8.512;2023-04-25T02:18:01;10.30;99.90
44117;DHT22;29781;49.480;8.512;2023-04-25T02:20:27;10.20;99.90
44117;DHT22;29781;49.480;8.512;2023-04-25T02:22:53;10.00;99.90
44117;DHT22;29781;49.480;8.512;2023-04-25T02:25:20;10.00;99.90
44117;DHT22;29781;49.480;8.512;2023-04-25T02:27:49;10.00;99.90
44117;DHT22;29781;49.480;8.512;2023-04-25T02:30:15;9.90;99.90
44117;DHT22;29781;49.480;8.512;2023-04-25T02:32:41;10.10;99.90
44117;DHT22;29781;49.480;8.512;2023-04-25T02:35:07;10.20;99.90
44117;DHT22;29781;49.480;8.512;2023-04-25T02:37:33;10.30;99.90
44117;DHT22;29781;49.480;8.512;2023-04-25T02:40:00;10.30;99.90
44117;DHT22;29781;49.480;8.512;2023-04-25T02:42:26;10.40;99.90
44117;DHT22;29781;49.480;8.512;2023-04-25T02:44:51;10.40;99.90
44117;DHT22;29781;49.480;8.512;2023-04-25T02:47:17;10.40;99.90
44117;DHT22;29781;49.480;8.512;2023-04-25T02:49:42;10.40;99.90
44117;DHT22;29781;49.480;8.512;2023-04-25T02:52:08;10.50;99.90
44117;DHT22;29781;49.480;8.512;2023-04-25T02:54:34;10.50;99.90
44117;DHT22;29781;49.480;8.512;2023-04-25T02:57:00;10.50;99.90
44117;DHT22;29781;49.480;8.512;2023-04-25T02:59:27;10.30;99.90
44117;DHT22;29781;49.480;8.512;2023-04-25T03:01:53;10.20;99.90
44117;DHT22;29781;49.480;8.512;2023-04-25T03:04:18;10.10;99.90
44117;DHT22;29781;49.480;8.512;2023-04-25T03:06:44;10.10;99.90
44117;DHT22;29781;49.480;8.512;2023-04-25T03:09:10;10.20;99.90
44117;DHT22;29781;49.480;8.512;2023-04-25T03:11:38;10.30;99.90
44117;DHT22;29781;49.480;8.512;2023-04-25T03:14:03;10.20;99.90
44117;DHT22;29781;49.480;8.512;2023-04-25T03:16:29;10.10;99.90
44117;DHT22;29781;49.480;8.512;2023-04-25T03:18:55;10.20;99.90
44117;DHT22;29781;49.480;8.512;2023-04-25T03:21:20;10.10;99.90
44117;DHT22;29781;49.480;8.512;2023-04-25T03:23:45;10.00;99.90
44117;DHT22;29781;49.480;8.512;2023-04-25T03:26:11;10.10;99.90
44117;DHT22;29781;49.480;8.512;2023-04-25T03:28:36;9.90;99.90
44117;DHT22;29781;49.480;8.512;2023-04-25T03:31:02;10.10;99.90
44117;DHT22;29781;49.480;8.512;2023-04-25T03:33:28;10.10;99.90
44117;DHT22;29781;49.480;8.512;2023-04-25T03:35:53;10.20;99.90
44117;DHT22;29781;49.480;8.512;2023-04-25T03:38:19;10.00;99.90
44117;DHT22;29781;49.480;8.512;2023-04-25T03:40:44;10.00;99.90
44117;DHT22;29781;49.480;8.512;2023-04-25T03:43:10;9.90;99.90
44117;DHT22;29781;49.480;8.512;2023-04-25T03:45:36;10.00;99.90
44117;DHT22;29781;49.480;8.512;2023-04-25T03:48:02;9.80;99.90
44117;DHT22;29781;49.480;8.512;2023-04-25T03:50:27;10.00;99.90
44117;DHT22;29781;49.480;8.512;2023-04-25T03:52:52;9.80;99.90
44117;DHT22;29781;49.480;8.512;2023-04-25T03:55:18;9.90;99.90
44117;DHT22;29781;49.480;8.512;2023-04-25T03:57:44;10.00;99.90
44117;DHT22;29781;49.480;8.512;2023-04-25T04:00:09;9.90;99.90
44117;DHT22;29781;49.480;8.512;2023-04-25T04:02:35;9.80;99.90
44117;DHT22;29781;49.480;8.512;2023-04-25T04:05:03;10.00;99.90
44117;DHT22;29781;49.480;8.512;2023-04-25T04:07:29;10.10;99.90
44117;DHT22;29781;49.480;8.512;2023-04-25T04:09:54;10.10;99.90
44117;DHT22;29781;49.480;8.512;2023-04-25T04:12:20;9.90;99.90
44117;DHT22;29781;49.480;8.512;2023-04-25T04:14:45;10.10;99.90
44117;DHT22;29781;49.480;8.512;2023-04-25T04:17:11;9.80;99.90
44117;DHT22;29781;49.480;8.512;2023-04-25T04:19:36;9.70;99.90
44117;DHT22;29781;49.480;8.512;2023-04-25T04:22:02;9.90;99.90
44117;DHT22;29781;49.480;8.512;2023-04-25T04:24:28;10.10;99.90
44117;DHT22;29781;49.480;8.512;2023-04-25T04:26:53;10.20;99.90
44117;DHT22;29781;49.480;8.512;2023-04-25T04:29:18;10.10;99.90
44117;DHT22;29781;49.480;8.512;2023-04-25T04:31:50;10.20;99.90
44117;DHT22;29781;49.480;8.512;2023-04-25T04:34:18;10.10;99.90
44117;DHT22;29781;49.480;8.512;2023-04-25T04:36:44;10.20;99.90
44117;DHT22;29781;49.480;8.512;2023-04-25T04:39:11;10.00;99.90
44117;DHT22;29781;49.480;8.512;2023-04-25T04:41:37;10.00;99.90
44117;DHT22;29781;49.480;8.512;2023-04-25T04:44:02;9.90;99.90
44117;DHT22;29781;49.480;8.512;2023-04-25T04:46:28;9.80;99.90
44117;DHT22;29781;49.480;8.512;2023-04-25T04:48:54;9.70;99.90
44117;DHT22;29781;49.480;8.512;2023-04-25T04:51:21;9.70;99.90
44117;DHT22;29781;49.480;8.512;2023-04-25T04:53:47;9.70;99.90
44117;DHT22;29781;49.480;8.512;2023-04-25T04:56:12;9.40;99.90
44117;DHT22;29781;49.480;8.512;2023-04-25T04:58:38;9.50;99.90
44117;DHT22;29781;49.480;8.512;2023-04-25T05:01:03;9.60;99.90
44117;DHT22;29781;49.480;8.512;2023-04-25T05:03:29;9.60;99.90
44117;DHT22;29781;49.480;8.512;2023-04-25T05:05:55;9.50;99.90
44117;DHT22;29781;49.480;8.512;2023-04-25T05:08:20;9.60;99.90
44117;DHT22;29781;49.480;8.512;2023-04-25T05:10:46;9.60;99.90
44117;DHT22;29781;49.480;8.512;2023-04-25T05:13:11;9.60;99.90
44117;DHT22;29781;49.480;8.512;2023-04-25T05:15:37;9.40;99.90
44117;DHT22;29781;49.480;8.512;2023-04-25T05:18:02;9.60;99.90
44117;DHT22;29781;49.480;8.512;2023-04-25T05:20:28;9.80;99.90
44117;DHT22;29781;49.480;8.512;2023-04-25T05:22:53;9.70;99.90
44117;DHT22;29781;49.480;8.512;2023-04-25T05:25:19;9.70;99.90
44117;DHT22;29781;49.480;8.512;2023-04-25T05:27:44;9.50;99.90
44117;DHT22;29781;49.480;8.512;2023-04-25T05:30:10;9.40;99.90
44117;DHT22;29781;49.480;8.512;2023-04-25T05:32:36;9.30;99.90
44117;DHT22;29781;49.480;8.512;2023-04-25T05:35:02;9.30;99.90
44117;DHT22;29781;49.480;8.512;2023-04-25T05:37:28;9.20;99.90
44117;DHT22;29781;49.480;8.512;2023-04-25T05:39:55;9.20;99.90
44117;DHT22;29781;49.480;8.512;2023-04-25T05:42:21;9.20;99.90
44117;DHT22;29781;49.480;8.512;2023-04-25T05:44:46;9.30;99.90
44117;DHT22;29781;49.480;8.512;2023-04-25T05:47:12;9.60;99.90
44117;DHT22;29781;49.480;8.512;2023-04-25T05:49:37;9.70;99.90
44117;DHT22;29781;49.480;8.512;2023-04-25T05:52:03;9.80;99.90
44117;DHT22;29781;49.480;8.512;2023-04-25T05:54:29;9.90;99.90
44117;DHT22;29781;49.480;8.512;2023-04-25T05:56:56;9.90;99.90
44117;DHT22;29781;49.480;8.512;2023-04-25T05:59:22;9.70;99.90
44117;DHT22;29781;49.480;8.512;2023-04-25T06:01:47;9.60;99.90
44117;DHT22;29781;49.480;8.512;2023-04-25T06:04:13;9.60;99.90
44117;DHT22;29781;49.480;8.512;2023-04-25T06:06:38;9.90;99.90
44117;DHT22;29781;49.480;8.512;2023-04-25T06:09:04;9.60;99.90
44117;DHT22;29781;49.480;8.512;2023-04-25T06:11:29;9.60;99.90
44117;DHT22;29781;49.480;8.512;2023-04-25T06:13:55;9.40;99.90
44117;DHT22;29781;49.480;8.512;2023-04-25T06:16:21;9.20;99.90
44117;DHT22;29781;49.480;8.512;2023-04-25T06:18:46;9.20;99.90
44117;DHT22;29781;49.480;8.512;2023-04-25T06:21:12;9.20;99.90
44117;DHT22;29781;49.480;8.512;2023-04-25T06:23:37;9.30;99.90
44117;DHT22;29781;49.480;8.512;2023-04-25T06:26:03;9.20;99.90
44117;DHT22;29781;49.480;8.512;2023-04-25T06:28:28;9.00;99.90
44117;DHT22;29781;49.480;8.512;2023-04-25T06:30:54;9.10;99.90
44117;DHT22;29781;49.480;8.512;2023-04-25T06:33:20;9.20;99.90
44117;DHT22;29781;49.480;8.512;2023-04-25T06:35:46;9.10;99.90
44117;DHT22;29781;49.480;8.512;2023-04-25T06:38:12;9.00;99.90
44117;DHT22;29781;49.480;8.512;2023-04-25T06:40:37;8.80;99.90
44117;DHT22;29781;49.480;8.512;2023-04-25T06:43:03;8.80;99.90
44117;DHT22;29781;49.480;8.512;2023-04-25T06:45:29;8.50;99.90
44117;DHT22;29781;49.480;8.512;2023-04-25T06:47:54;8.50;99.90
44117;DHT22;29781;49.480;8.512;2023-04-25T06:50:20;8.40;99.90
44117;DHT22;29781;49.480;8.512;2023-04-25T06:52:45;8.40;99.90
44117;DHT22;29781;49.480;8.512;2023-04-25T06:55:11;8.60;99.90
44117;DHT22;29781;49.480;8.512;2023-04-25T06:57:36;8.70;99.90
44117;DHT22;29781;49.480;8.512;2023-04-25T07:00:03;8.70;99.90
44117;DHT22;29781;49.480;8.512;2023-04-25T07:02:30;8.60;99.90
44117;DHT22;29781;49.480;8.512;2023-04-25T07:04:56;8.60;99.90
44117;DHT22;29781;49.480;8.512;2023-04-25T07:07:25;8.60;99.90
44117;DHT22;29781;49.480;8.512;2023-04-25T07:09:50;8.70;99.90
44117;DHT22;29781;49.480;8.512;2023-04-25T07:12:16;8.70;99.90
44117;DHT22;29781;49.480;8.512;2023-04-25T07:14:41;8.70;99.90
44117;DHT22;29781;49.480;8.512;2023-04-25T07:17:07;8.70;99.90
44117;DHT22;29781;49.480;8.512;2023-04-25T07:19:33;8.60;99.90
44117;DHT22;29781;49.480;8.512;2023-04-25T07:21:58;8.70;99.90
44117;DHT22;29781;49.480;8.512;2023-04-25T07:24:24;8.50;99.90
44117;DHT22;29781;49.480;8.512;2023-04-25T07:26:49;8.70;99.90
44117;DHT22;29781;49.480;8.512;2023-04-25T07:29:15;8.40;99.90
44117;DHT22;29781;49.480;8.512;2023-04-25T07:31:41;8.20;99.90
44117;DHT22;29781;49.480;8.512;2023-04-25T07:34:07;8.40;99.90
44117;DHT22;29781;49.480;8.512;2023-04-25T07:36:32;8.40;99.90
44117;DHT22;29781;49.480;8.512;2023-04-25T07:38:58;8.30;99.90
44117;DHT22;29781;49.480;8.512;2023-04-25T07:41:23;8.50;99.90
44117;DHT22;29781;49.480;8.512;2023-04-25T07:43:49;8.40;99.90
44117;DHT22;29781;49.480;8.512;2023-04-25T07:46:15;8.40;99.90
44117;DHT22;29781;49.480;8.512;2023-04-25T07:48:40;8.30;99.90
44117;DHT22;29781;49.480;8.512;2023-04-25T07:51:06;8.30;99.90
44117;DHT22;29781;49.480;8.512;2023-04-25T07:53:32;8.20;99.90
44117;DHT22;29781;49.480;8.512;2023-04-25T07:56:00;8.00;99.90
44117;DHT22;29781;49.480;8.512;2023-04-25T07:58:25;8.20;99.90
44117;DHT22;29781;49.480;8.512;2023-04-25T08:00:51;8.30;99.90
44117;DHT22;29781;49.480;8.512;2023-04-25T08:03:16;8.20;99.90
44117;DHT22;29781;49.480;8.512;2023-04-25T08:05:42;8.20;99.90
44117;DHT22;29781;49.480;8.512;2023-04-25T08:08:08;8.30;99.90
44117;DHT22;29781;49.480;8.512;2023-04-25T08:10:34;8.20;99.90
44117;DHT22;29781;49.480;8.512;2023-04-25T08:12:59;8.20;99.90
44117;DHT22;29781;49.480;8.512;2023-04-25T08:15:25;8.20;99.90
44117;DHT22;29781;49.480;8.512;2023-04-25T08:17:51;8.50;99.90
44117;DHT22;29781;49.480;8.512;2023-04-25T08:20:17;8.60;99.90
44117;DHT22;29781;49.480;8.512;2023-04-25T08:22:42;8.70;99.90
44117;DHT22;29781;49.480;8.512;2023-04-25T08:25:08;8.70;99.90
44117;DHT22;29781;49.480;8.512;2023-04-25T08:27:34;8.90;99.90
44117;DHT22;29781;49.480;8.512;2023-04-25T08:30:00;9.00;99.90
44117;DHT22;29781;49.480;8.512;2023-04-25T08:32:25;9.10;99.90
44117;DHT22;29781;49.480;8.512;2023-04-25T08:34:51;9.30;99.90
44117;DHT22;29781;49.480;8.512;2023-04-25T08:37:19;9.60;99.90
44117;DHT22;29781;49.480;8.512;2023-04-25T08:39:45;10.00;99.90
44117;DHT22;29781;49.480;8.512;2023-04-25T08:42:12;10.50;99.90
44117;DHT22;29781;49.480;8.512;2023-04-25T08:44:37;11.20;99.90
44117;DHT22;29781;49.480;8.512;2023-04-25T08:47:04;11.80;99.90
44117;DHT22;29781;49.480;8.512;2023-04-25T08:49:32;11.70;99.90
44117;DHT22;29781;49.480;8.512;2023-04-25T08:52:00;11.60;99.90
44117;DHT22;29781;49.480;8.512;2023-04-25T08:54:27;11.20;99.90
44117;DHT22;29781;49.480;8.512;2023-04-25T08:56:54;11.20;99.90
44117;DHT22;29781;49.480;8.512;2023-04-25T08:59:21;11.00;99.90
44117;DHT22;29781;49.480;8.512;2023-04-25T09:01:49;10.50;99.90
44117;DHT22;29781;49.480;8.512;2023-04-25T09:04:15;10.10;99.90
44117;DHT22;29781;49.480;8.512;2023-04-25T09:06:40;10.20;99.90
44117;DHT22;29781;49.480;8.512;2023-04-25T09:09:08;10.40;99.90
44117;DHT22;29781;49.480;8.512;2023-04-25T09:11:35;10.70;99.90
44117;DHT22;29781;49.480;8.512;2023-04-25T09:14:20;10.80;99.90
44117;DHT22;29781;49.480;8.512;2023-04-25T09:19:31;10.90;99.90
44117;DHT22;29781;49.480;8.512;2023-04-25T09:21:59;11.10;99.90
44117;DHT22;29781;49.480;8.512;2023-04-25T09:24:38;11.00;99.90
44117;DHT22;29781;49.480;8.512;2023-04-25T09:27:18;11.10;99.90
44117;DHT22;29781;49.480;8.512;2023-04-25T09:29:43;11.00;99.90
44117;DHT22;29781;49.480;8.512;2023-04-25T09:34:39;10.30;99.90
44117;DHT22;29781;49.480;8.512;2023-04-25T09:37:06;10.00;99.90
44117;DHT22;29781;49.480;8.512;2023-04-25T09:39:33;9.90;99.90
44117;DHT22;29781;49.480;8.512;2023-04-25T09:41:59;10.20;99.90
44117;DHT22;29781;49.480;8.512;2023-04-25T09:44:24;10.50;99.90
44117;DHT22;29781;49.480;8.512;2023-04-25T09:46:50;10.70;99.90
44117;DHT22;29781;49.480;8.512;2023-04-25T09:49:20;10.50;99.90
44117;DHT22;29781;49.480;8.512;2023-04-25T09:51:58;10.60;99.90
44117;DHT22;29781;49.480;8.512;2023-04-25T09:54:25;11.00;99.90
44117;DHT22;29781;49.480;8.512;2023-04-25T09:56:52;11.00;99.90
44117;DHT22;29781;49.480;8.512;2023-04-25T09:59:20;11.00;99.90
44117;DHT22;29781;49.480;8.512;2023-04-25T10:01:48;11.50;99.90
44117;DHT22;29781;49.480;8.512;2023-04-25T10:04:23;11.30;99.90
44117;DHT22;29781;49.480;8.512;2023-04-25T10:06:49;11.50;99.90
44117;DHT22;29781;49.480;8.512;2023-04-25T10:09:20;11.60;99.90
44117;DHT22;29781;49.480;8.512;2023-04-25T10:11:46;12.70;99.90
44117;DHT22;29781;49.480;8.512;2023-04-25T10:14:16;13.60;99.90
44117;DHT22;29781;49.480;8.512;2023-04-25T10:16:42;14.20;99.90
44117;DHT22;29781;49.480;8.512;2023-04-25T10:19:08;13.40;99.90
44117;DHT22;29781;49.480;8.512;2023-04-25T10:21:40;13.50;99.90
44117;DHT22;29781;49.480;8.512;2023-04-25T10:24:09;12.60;99.90
44117;DHT22;29781;49.480;8.512;2023-04-25T10:26:35;11.80;99.90
44117;DHT22;29781;49.480;8.512;2023-04-25T10:29:03;11.50;99.90
44117;DHT22;29781;49.480;8.512;2023-04-25T10:31:31;11.50;99.90
44117;DHT22;29781;49.480;8.512;2023-04-25T10:33:57;11.20;99.90
44117;DHT22;29781;49.480;8.512;2023-04-25T10:36:24;11.40;99.90
44117;DHT22;29781;49.480;8.512;2023-04-25T10:38:52;11.50;99.90
44117;DHT22;29781;49.480;8.512;2023-04-25T10:41:20;11.30;99.90
44117;DHT22;29781;49.480;8.512;2023-04-25T10:43:47;11.70;99.90
44117;DHT22;29781;49.480;8.512;2023-04-25T10:46:15;11.90;99.90
44117;DHT22;29781;49.480;8.512;2023-04-25T10:48:51;11.80;99.90
44117;DHT22;29781;49.480;8.512;2023-04-25T10:54:06;11.80;99.90
44117;DHT22;29781;49.480;8.512;2023-04-25T10:56:37;12.30;99.90
44117;DHT22;29781;49.480;8.512;2023-04-25T10:59:16;12.50;99.90
44117;DHT22;29781;49.480;8.512;2023-04-25T11:01:52;12.90;99.90
44117;DHT22;29781;49.480;8.512;2023-04-25T11:04:28;13.20;99.90
44117;DHT22;29781;49.480;8.512;2023-04-25T11:09:26;13.20;99.90
44117;DHT22;29781;49.480;8.512;2023-04-25T11:11:58;12.90;99.90
44117;DHT22;29781;49.480;8.512;2023-04-25T11:14:25;12.90;99.90
44117;DHT22;29781;49.480;8.512;2023-04-25T11:16:55;12.80;99.90
44117;DHT22;29781;49.480;8.512;2023-04-25T11:19:22;12.70;99.90
44117;DHT22;29781;49.480;8.512;2023-04-25T11:21:47;12.20;99.90
44117;DHT22;29781;49.480;8.512;2023-04-25T11:24:13;12.50;99.90
44117;DHT22;29781;49.480;8.512;2023-04-25T11:26:40;11.90;99.90
44117;DHT22;29781;49.480;8.512;2023-04-25T11:29:06;11.90;99.90
44117;DHT22;29781;49.480;8.512;2023-04-25T11:31:31;12.20;99.90
44117;DHT22;29781;49.480;8.512;2023-04-25T11:33:57;12.20;99.90
44117;DHT22;29781;49.480;8.512;2023-04-25T11:36:26;12.40;99.90
44117;DHT22;29781;49.480;8.512;2023-04-25T11:38:53;12.20;99.90
44117;DHT22;29781;49.480;8.512;2023-04-25T11:41:19;11.90;99.90
44117;DHT22;29781;49.480;8.512;2023-04-25T11:43:46;11.40;99.90
44117;DHT22;29781;49.480;8.512;2023-04-25T11:46:11;11.60;99.90
44117;DHT22;29781;49.480;8.512;2023-04-25T11:48:42;12.00;99.90
44117;DHT22;29781;49.480;8.512;2023-04-25T11:51:08;12.20;99.90
44117;DHT22;29781;49.480;8.512;2023-04-25T11:53:34;12.40;99.90
44117;DHT22;29781;49.480;8.512;2023-04-25T11:56:00;12.80;99.90
44117;DHT22;29781;49.480;8.512;2023-04-25T11:58:26;12.90;99.90
44117;DHT22;29781;49.480;8.512;2023-04-25T12:00:52;12.90;99.90
44117;DHT22;29781;49.480;8.512;2023-04-25T12:03:18;13.00;99.90
44117;DHT22;29781;49.480;8.512;2023-04-25T12:05:45;12.80;99.90
44117;DHT22;29781;49.480;8.512;2023-04-25T12:08:15;13.00;99.90
44117;DHT22;29781;49.480;8.512;2023-04-25T12:10:43;12.90;99.90
44117;DHT22;29781;49.480;8.512;2023-04-25T12:13:26;12.40;99.90
44117;DHT22;29781;49.480;8.512;2023-04-25T12:15:56;12.20;99.90
44117;DHT22;29781;49.480;8.512;2023-04-25T12:18:25;12.40;99.90
44117;DHT22;29781;49.480;8.512;2023-04-25T12:20:53;12.40;99.90
44117;DHT22;29781;49.480;8.512;2023-04-25T12:23:25;12.60;99.90
44117;DHT22;29781;49.480;8.512;2023-04-25T12:25:52;12.40;99.90
44117;DHT22;29781;49.480;8.512;2023-04-25T12:28:20;12.40;99.90
44117;DHT22;29781;49.480;8.512;2023-04-25T12:31:12;12.00;99.90
44117;DHT22;29781;49.480;8.512;2023-04-25T12:33:40;12.10;99.90
44117;DHT22;29781;49.480;8.512;2023-04-25T12:36:06;11.90;99.90
44117;DHT22;29781;49.480;8.512;2023-04-25T12:38:41;12.00;99.90
44117;DHT22;29781;49.480;8.512;2023-04-25T12:41:07;12.10;99.90
44117;DHT22;29781;49.480;8.512;2023-04-25T12:43:33;12.20;99.90
44117;DHT22;29781;49.480;8.512;2023-04-25T12:45:59;12.50;99.90
44117;DHT22;29781;49.480;8.512;2023-04-25T12:48:25;12.70;99.90
44117;DHT22;29781;49.480;8.512;2023-04-25T12:50:51;12.80;99.90
44117;DHT22;29781;49.480;8.512;2023-04-25T12:53:21;13.00;99.90
44117;DHT22;29781;49.480;8.512;2023-04-25T12:55:48;12.90;99.90
44117;DHT22;29781;49.480;8.512;2023-04-25T12:58:15;12.70;99.90
44117;DHT22;29781;49.480;8.512;2023-04-25T13:00:40;12.30;99.90
44117;DHT22;29781;49.480;8.512;2023-04-25T13:03:06;12.30;99.90
44117;DHT22;29781;49.480;8.512;2023-04-25T13:05:32;12.40;99.90
44117;DHT22;29781;49.480;8.512;2023-04-25T13:07:57;12.20;99.90
44117;DHT22;29781;49.480;8.512;2023-04-25T13:10:23;12.00;99.90
44117;DHT22;29781;49.480;8.512;2023-04-25T13:12:48;11.70;99.90
44117;DHT22;29781;49.480;8.512;2023-04-25T13:15:14;11.60;99.90
44117;DHT22;29781;49.480;8.512;2023-04-25T13:17:41;11.70;99.90
44117;DHT22;29781;49.480;8.512;2023-04-25T13:20:07;11.80;99.90
44117;DHT22;29781;49.480;8.512;2023-04-25T13:22:38;12.00;99.90
44117;DHT22;29781;49.480;8.512;2023-04-25T13:25:05;11.80;99.90
44117;DHT22;29781;49.480;8.512;2023-04-25T13:27:32;12.10;99.90
44117;DHT22;29781;49.480;8.512;2023-04-25T13:29:59;12.40;99.90
44117;DHT22;29781;49.480;8.512;2023-04-25T13:32:25;12.60;99.90
44117;DHT22;29781;49.480;8.512;2023-04-25T13:34:51;12.90;99.90
44117;DHT22;29781;49.480;8.512;2023-04-25T13:37:17;12.70;99.90
44117;DHT22;29781;49.480;8.512;2023-04-25T13:39:42;12.10;99.90
44117;DHT22;29781;49.480;8.512;2023-04-25T13:42:08;11.90;99.90
44117;DHT22;29781;49.480;8.512;2023-04-25T13:44:33;11.70;99.90
44117;DHT22;29781;49.480;8.512;2023-04-25T13:46:59;11.80;99.90
44117;DHT22;29781;49.480;8.512;2023-04-25T13:49:26;12.00;99.90
44117;DHT22;29781;49.480;8.512;2023-04-25T13:51:51;12.20;99.90
44117;DHT22;29781;49.480;8.512;2023-04-25T13:54:17;12.40;99.90
44117;DHT22;29781;49.480;8.512;2023-04-25T13:56:42;12.30;99.90
44117;DHT22;29781;49.480;8.512;2023-04-25T13:59:08;12.30;99.90
44117;DHT22;29781;49.480;8.512;2023-04-25T14:01:34;12.30;99.90
44117;DHT22;29781;49.480;8.512;2023-04-25T14:04:01;12.50;99.90
44117;DHT22;29781;49.480;8.512;2023-04-25T14:06:27;12.50;99.90
44117;DHT22;29781;49.480;8.512;2023-04-25T14:08:53;12.60;99.90
44117;DHT22;29781;49.480;8.512;2023-04-25T14:11:19;12.40;99.90
44117;DHT22;29781;49.480;8.512;2023-04-25T14:13:45;12.30;99.90
44117;DHT22;29781;49.480;8.512;2023-04-25T14:16:11;12.40;99.90
44117;DHT22;29781;49.480;8.512;2023-04-25T14:18:36;12.50;99.90
44117;DHT22;29781;49.480;8.512;2023-04-25T14:21:02;12.60;99.90
44117;DHT22;29781;49.480;8.512;2023-04-25T14:23:27;12.90;99.90
44117;DHT22;29781;49.480;8.512;2023-04-25T14:25:53;12.40;99.90
44117;DHT22;29781;49.480;8.512;2023-04-25T14:28:19;12.40;99.90
44117;DHT22;29781;49.480;8.512;2023-04-25T14:30:45;12.50;99.90
44117;DHT22;29781;49.480;8.512;2023-04-25T14:33:10;12.50;99.90
44117;DHT22;29781;49.480;8.512;2023-04-25T14:35:36;12.50;99.90
44117;DHT22;29781;49.480;8.512;2023-04-25T14:38:02;12.70;99.90
44117;DHT22;29781;49.480;8.512;2023-04-25T14:40:27;12.40;99.90
44117;DHT22;29781;49.480;8.512;2023-04-25T14:42:53;12.10;99.90
44117;DHT22;29781;49.480;8.512;2023-04-25T14:45:19;11.90;99.90
44117;DHT22;29781;49.480;8.512;2023-04-25T14:47:44;11.60;99.90
44117;DHT22;29781;49.480;8.512;2023-04-25T14:50:10;11.60;99.90
44117;DHT22;29781;49.480;8.512;2023-04-25T14:52:35;11.50;99.90
44117;DHT22;29781;49.480;8.512;2023-04-25T14:55:02;11.60;99.90
44117;DHT22;29781;49.480;8.512;2023-04-25T14:57:34;11.90;99.90
44117;DHT22;29781;49.480;8.512;2023-04-25T15:00:00;12.00;99.90
44117;DHT22;29781;49.480;8.512;2023-04-25T15:02:26;11.80;99.90
44117;DHT22;29781;49.480;8.512;2023-04-25T15:04:52;11.90;99.90
44117;DHT22;29781;49.480;8.512;2023-04-25T15:07:17;11.50;99.90
44117;DHT22;29781;49.480;8.512;2023-04-25T15:09:43;11.30;99.90
44117;DHT22;29781;49.480;8.512;2023-04-25T15:12:08;11.40;99.90
44117;DHT22;29781;49.480;8.512;2023-04-25T15:14:34;11.50;99.90
44117;DHT22;29781;49.480;8.512;2023-04-25T15:17:00;11.50;99.90
44117;DHT22;29781;49.480;8.512;2023-04-25T15:19:26;11.70;99.90
44117;DHT22;29781;49.480;8.512;2023-04-25T15:21:51;11.90;99.90
44117;DHT22;29781;49.480;8.512;2023-04-25T15:24:17;12.10;99.90
44117;DHT22;29781;49.480;8.512;2023-04-25T15:26:43;12.30;99.90
44117;DHT22;29781;49.480;8.512;2023-04-25T15:29:10;12.50;99.90
44117;DHT22;29781;49.480;8.512;2023-04-25T15:31:37;12.10;99.90
44117;DHT22;29781;49.480;8.512;2023-04-25T15:34:02;11.80;99.90
44117;DHT22;29781;49.480;8.512;2023-04-25T15:36:28;11.90;99.90
44117;DHT22;29781;49.480;8.512;2023-04-25T15:38:54;11.60;99.90
44117;DHT22;29781;49.480;8.512;2023-04-25T15:41:21;11.50;99.90